Time;durP1;ratioP1;P1;durP2;ratioP2;P2;SDS_P1;SDS_P2;PMS_P1;PMS_P2;Temp;Humidity;BMP_temperature;BMP_pressure;BME280_temperature;BME280_humidity;BME280_pressure;Samples;Min_cycle;Max_cycle;Signal;HPM_P1;HPM_P2
2021/05/01 00:01:27;;;;;;;12.05;8.00;;;17.80;71.30;;;;;;5050904;28;20033;-60
2021/05/01 00:03:53;;;;;;;10.15;7.65;;;17.80;71.10;;;;;;5046191;28;20043;-59
2021/05/01 00:06:18;;;;;;;9.93;7.38;;;17.80;71.00;;;;;;5034265;28;20040;-60
2021/05/01 00:08:44;;;;;;;8.65;7.00;;;17.80;71.00;;;;;;5051474;28;20060;-59
2021/05/01 00:11:10;;;;;;;8.25;6.50;;;17.80;71.00;;;;;;5053498;28;20094;-60
2021/05/01 00:13:36;;;;;;;9.43;6.78;;;17.80;70.90;;;;;;5053009;28;20038;-59
2021/05/01 00:16:03;;;;;;;9.55;7.25;;;17.80;70.80;;;;;;5050650;28;20110;-60
2021/05/01 00:18:29;;;;;;;11.38;7.35;;;17.80;71.10;;;;;;5048897;28;20044;-59
2021/05/01 00:20:54;;;;;;;8.80;6.43;;;17.80;71.30;;;;;;5048874;28;20615;-60
2021/05/01 00:23:21;;;;;;;8.60;6.82;;;17.80;71.10;;;;;;5065236;28;20040;-59
2021/05/01 00:25:47;;;;;;;10.20;6.68;;;17.90;71.10;;;;;;5041978;28;20041;-59
2021/05/01 00:28:13;;;;;;;7.68;5.97;;;17.80;70.80;;;;;;5048255;28;20076;-59
2021/05/01 00:30:40;;;;;;;9.07;6.88;;;17.80;70.60;;;;;;5049819;28;20087;-59
2021/05/01 00:33:06;;;;;;;9.45;6.25;;;17.80;71.20;;;;;;5051824;28;20060;-59
2021/05/01 00:35:32;;;;;;;8.13;6.85;;;17.80;70.70;;;;;;5032925;28;20131;-60
2021/05/01 00:37:58;;;;;;;8.65;6.72;;;17.80;70.90;;;;;;5050835;28;20467;-60
2021/05/01 00:40:24;;;;;;;8.35;6.90;;;17.80;70.90;;;;;;5047485;28;20106;-60
2021/05/01 00:42:50;;;;;;;8.73;7.07;;;17.80;70.80;;;;;;5050949;28;20044;-60
2021/05/01 00:45:15;;;;;;;8.13;6.88;;;17.80;70.90;;;;;;5030457;28;20053;-60
2021/05/01 00:47:41;;;;;;;7.38;6.30;;;17.80;70.80;;;;;;5060684;28;20464;-60
2021/05/01 00:50:07;;;;;;;7.88;6.57;;;17.90;70.80;;;;;;5049929;28;20061;-60
2021/05/01 00:52:34;;;;;;;8.77;5.93;;;17.80;70.40;;;;;;5054937;28;20033;-60
2021/05/01 00:55:04;;;;;;;7.07;6.38;;;17.90;70.50;;;;;;5050570;28;20036;-61
2021/05/01 00:57:30;;;;;;;8.18;6.30;;;17.80;70.80;;;;;;5056668;28;20036;-60
2021/05/01 00:59:56;;;;;;;7.78;6.95;;;17.80;70.70;;;;;;5058977;28;20036;-61
2021/05/01 01:02:26;;;;;;;8.63;6.78;;;17.80;70.80;;;;;;5053851;28;20047;-60
2021/05/01 01:04:52;;;;;;;6.55;5.72;;;17.80;70.80;;;;;;5066488;28;20032;-60
2021/05/01 01:07:18;;;;;;;7.72;6.95;;;17.80;70.90;;;;;;5054562;28;20040;-60
2021/05/01 01:09:43;;;;;;;7.10;6.30;;;17.80;70.80;;;;;;5042492;28;20476;-60
2021/05/01 01:12:09;;;;;;;7.80;6.82;;;17.80;70.80;;;;;;5037526;28;20159;-61
2021/05/01 01:14:35;;;;;;;7.03;6.32;;;17.80;70.60;;;;;;5050592;28;20061;-61
2021/05/01 01:17:01;;;;;;;7.07;6.38;;;17.80;70.50;;;;;;5050969;28;20098;-61
2021/05/01 01:19:27;;;;;;;6.95;6.20;;;17.80;70.50;;;;;;5052599;28;20029;-61
2021/05/01 01:21:53;;;;;;;8.52;6.65;;;17.80;70.40;;;;;;5050015;28;20504;-60
2021/05/01 01:24:19;;;;;;;7.10;6.03;;;17.80;70.10;;;;;;5027067;28;20044;-60
2021/05/01 01:26:45;;;;;;;9.10;6.57;;;17.80;70.20;;;;;;5043905;28;20080;-61
2021/05/01 01:29:14;;;;;;;9.25;6.45;;;17.80;70.30;;;;;;5042676;28;20049;-60
2021/05/01 01:31:41;;;;;;;8.80;6.28;;;17.80;70.60;;;;;;5036636;28;20474;-60
2021/05/01 01:34:07;;;;;;;8.40;6.72;;;17.80;70.50;;;;;;5049210;28;21287;-60
2021/05/01 01:36:33;;;;;;;7.03;6.28;;;17.80;70.70;;;;;;5045584;28;20119;-61
2021/05/01 01:38:58;;;;;;;8.25;6.05;;;17.70;70.70;;;;;;5051876;28;20528;-61
2021/05/01 01:41:25;;;;;;;13.95;6.40;;;17.70;70.70;;;;;;5045273;28;20029;-61
2021/05/01 01:43:50;;;;;;;6.22;5.63;;;17.70;70.80;;;;;;5045102;28;20067;-61
2021/05/01 01:46:16;;;;;;;7.05;6.35;;;17.70;70.70;;;;;;5054909;28;20056;-61
2021/05/01 01:48:42;;;;;;;7.88;6.22;;;17.70;70.90;;;;;;5060132;28;20033;-61
2021/05/01 01:51:08;;;;;;;6.72;5.95;;;17.70;70.50;;;;;;5065518;28;20044;-61
2021/05/01 01:53:34;;;;;;;7.10;6.40;;;17.50;70.80;;;;;;5043250;28;20044;-61
2021/05/01 01:55:59;;;;;;;8.32;7.47;;;17.50;71.00;;;;;;5032544;28;20040;-61
2021/05/01 01:58:26;;;;;;;7.30;6.10;;;17.60;71.00;;;;;;5062438;28;20103;-61
2021/05/01 02:00:53;;;;;;;7.05;6.35;;;17.50;70.80;;;;;;5058706;28;20033;-60
2021/05/01 02:03:19;;;;;;;6.93;6.10;;;17.40;71.30;;;;;;5042245;28;20123;-60
2021/05/01 02:05:45;;;;;;;9.38;6.80;;;17.40;71.40;;;;;;5053232;28;20136;-60
2021/05/01 02:08:12;;;;;;;7.07;6.00;;;17.40;71.20;;;;;;5034649;28;20517;-60
2021/05/01 02:10:38;;;;;;;8.63;6.88;;;17.40;71.30;;;;;;5054532;28;20033;-60
2021/05/01 02:13:05;;;;;;;9.90;6.93;;;17.40;71.30;;;;;;5041607;28;20053;-61
2021/05/01 02:15:31;;;;;;;9.35;6.95;;;17.50;71.40;;;;;;5044427;28;20514;-60
2021/05/01 02:17:58;;;;;;;8.65;5.97;;;17.50;71.30;;;;;;5050688;28;20054;-61
2021/05/01 02:20:33;;;;;;;7.95;6.07;;;17.50;71.40;;;;;;5037164;28;20094;-60
2021/05/01 02:22:59;;;;;;;9.13;5.90;;;17.50;71.10;;;;;;5063738;28;20028;-60
2021/05/01 02:25:26;;;;;;;7.13;5.53;;;17.50;71.30;;;;;;5030359;28;20033;-60
2021/05/01 02:27:54;;;;;;;6.30;5.43;;;17.40;71.00;;;;;;5047221;28;20066;-60
2021/05/01 02:30:22;;;;;;;7.22;5.47;;;17.50;71.10;;;;;;5059267;28;20055;-61
2021/05/01 02:32:48;;;;;;;6.25;5.00;;;17.40;70.80;;;;;;5054048;28;20052;-60
2021/05/01 02:35:20;;;;;;;7.78;5.03;;;17.40;71.00;;;;;;5030777;28;20033;-60
2021/05/01 02:37:47;;;;;;;5.88;5.28;;;17.30;70.60;;;;;;5043084;28;20543;-61
2021/05/01 02:40:14;;;;;;;7.05;5.55;;;17.30;71.00;;;;;;5044041;28;20120;-60
2021/05/01 02:42:41;;;;;;;8.18;5.32;;;17.30;71.00;;;;;;5045424;28;20482;-61
2021/05/01 02:45:09;;;;;;;6.38;5.78;;;17.30;71.00;;;;;;5045147;28;20052;-60
2021/05/01 02:47:35;;;;;;;7.28;5.85;;;17.40;71.10;;;;;;5042585;28;20039;-61
2021/05/01 02:50:02;;;;;;;5.72;5.13;;;17.30;71.00;;;;;;5050998;28;20041;-61
2021/05/01 02:52:27;;;;;;;7.75;6.05;;;17.40;70.90;;;;;;5068261;28;20037;-59
2021/05/01 02:54:53;;;;;;;5.97;5.38;;;17.40;70.80;;;;;;5036377;28;20049;-59
2021/05/01 02:57:19;;;;;;;8.70;5.97;;;17.20;70.80;;;;;;5048173;28;20057;-59
2021/05/01 02:59:45;;;;;;;6.88;5.38;;;17.10;71.20;;;;;;5049516;28;20045;-59
2021/05/01 03:02:10;;;;;;;8.65;5.50;;;17.10;71.10;;;;;;5043977;28;20469;-60
2021/05/01 03:04:36;;;;;;;7.15;5.18;;;17.10;71.20;;;;;;5051280;28;20045;-59
2021/05/01 03:07:02;;;;;;;9.63;5.50;;;17.20;71.30;;;;;;5054369;28;20049;-60
2021/05/01 03:09:28;;;;;;;6.68;5.00;;;17.20;71.30;;;;;;5068995;28;20041;-59
2021/05/01 03:11:54;;;;;;;6.20;5.60;;;17.20;71.10;;;;;;5063699;28;20044;-60
2021/05/01 03:14:20;;;;;;;7.47;5.10;;;17.10;71.10;;;;;;5049311;28;20128;-60
2021/05/01 03:16:45;;;;;;;6.57;5.65;;;17.10;71.20;;;;;;5059151;28;20621;-60
2021/05/01 03:19:11;;;;;;;6.05;5.47;;;17.00;71.40;;;;;;5046904;28;20057;-59
2021/05/01 03:21:37;;;;;;;5.80;5.20;;;17.00;71.40;;;;;;5041987;28;20163;-59
2021/05/01 03:24:04;;;;;;;6.00;5.45;;;17.10;71.40;;;;;;5045893;28;20068;-60
2021/05/01 03:26:29;;;;;;;9.35;6.25;;;17.00;71.40;;;;;;5042570;28;20073;-60
2021/05/01 03:28:55;;;;;;;6.20;5.60;;;16.90;71.90;;;;;;5056463;28;20560;-60
2021/05/01 03:31:21;;;;;;;8.55;7.05;;;16.90;71.90;;;;;;5048887;28;20218;-60
2021/05/01 03:33:46;;;;;;;7.43;6.68;;;16.80;72.10;;;;;;5050853;28;20389;-60
2021/05/01 03:36:12;;;;;;;9.38;7.28;;;16.90;72.10;;;;;;5052220;28;20041;-60
2021/05/01 03:38:38;;;;;;;10.07;7.72;;;16.90;72.10;;;;;;5042791;28;20080;-61
2021/05/01 03:41:04;;;;;;;8.55;7.30;;;16.90;72.40;;;;;;5050891;28;20048;-61
2021/05/01 03:43:29;;;;;;;8.55;7.65;;;16.80;72.50;;;;;;5050793;28;20041;-60
2021/05/01 03:45:56;;;;;;;9.05;7.80;;;16.80;72.70;;;;;;5050392;28;20040;-61
2021/05/01 03:48:22;;;;;;;8.95;8.02;;;16.80;72.80;;;;;;5051426;28;20059;-60
2021/05/01 03:50:48;;;;;;;10.75;8.35;;;16.80;72.80;;;;;;5060738;28;20475;-61
2021/05/01 03:53:14;;;;;;;10.88;8.45;;;16.80;72.70;;;;;;5044749;28;20097;-61
2021/05/01 03:55:40;;;;;;;8.75;7.60;;;16.70;73.10;;;;;;5060790;28;20123;-60
2021/05/01 03:58:05;;;;;;;12.00;8.63;;;16.70;73.00;;;;;;5048004;28;20129;-61
2021/05/01 04:00:31;;;;;;;10.27;8.15;;;16.80;73.10;;;;;;5049544;28;20067;-61
2021/05/01 04:02:57;;;;;;;10.32;8.25;;;16.80;73.10;;;;;;5061690;28;20044;-61
2021/05/01 04:05:22;;;;;;;11.25;9.15;;;16.80;73.20;;;;;;5054283;28;20047;-61
2021/05/01 04:07:49;;;;;;;9.10;8.20;;;16.80;73.50;;;;;;5053718;28;20048;-61
2021/05/01 04:10:15;;;;;;;11.80;9.02;;;16.80;73.50;;;;;;5052086;28;20037;-60
2021/05/01 04:12:41;;;;;;;10.98;7.85;;;16.70;73.50;;;;;;5050089;28;20052;-61
2021/05/01 04:15:07;;;;;;;11.02;9.50;;;16.90;73.50;;;;;;5055597;28;20037;-61
2021/05/01 04:17:33;;;;;;;11.93;10.23;;;16.90;73.30;;;;;;5057628;28;20102;-60
2021/05/01 04:19:58;;;;;;;11.13;9.73;;;16.90;73.60;;;;;;5048888;28;20064;-60
2021/05/01 04:22:24;;;;;;;10.73;9.63;;;16.90;73.60;;;;;;5046901;28;20040;-60
2021/05/01 04:24:51;;;;;;;11.45;10.38;;;16.90;73.70;;;;;;5053947;28;20036;-60
2021/05/01 04:27:17;;;;;;;13.25;11.38;;;16.80;74.30;;;;;;5062433;28;20040;-60
2021/05/01 04:29:43;;;;;;;13.55;11.05;;;16.80;73.90;;;;;;5052142;28;20044;-60
2021/05/01 04:32:09;;;;;;;11.80;10.57;;;16.90;73.90;;;;;;5051622;28;20059;-60
2021/05/01 04:34:34;;;;;;;12.10;10.90;;;16.80;74.00;;;;;;5041781;28;20414;-60
2021/05/01 04:37:00;;;;;;;12.80;11.45;;;16.70;74.20;;;;;;5050631;28;20053;-60
2021/05/01 04:39:26;;;;;;;12.02;10.82;;;16.80;74.30;;;;;;5039729;28;20483;-60
2021/05/01 04:41:53;;;;;;;12.82;11.38;;;16.80;74.10;;;;;;5057623;28;20040;-61
2021/05/01 04:44:20;;;;;;;12.95;11.50;;;16.80;74.30;;;;;;5048775;28;20482;-61
2021/05/01 04:46:52;;;;;;;13.38;11.43;;;16.80;74.30;;;;;;5049766;28;20040;-61
2021/05/01 04:59:23;;;;;;;14.90;12.10;;;16.80;74.60;;;;;;5010398;28;20060;-60
2021/05/01 05:01:49;;;;;;;13.10;11.55;;;16.80;74.60;;;;;;5046540;28;20049;-61
2021/05/01 05:04:15;;;;;;;13.52;12.15;;;16.80;74.40;;;;;;5046228;28;20040;-61
2021/05/01 05:06:40;;;;;;;15.52;12.57;;;16.90;74.10;;;;;;5044273;28;20056;-62
2021/05/01 05:09:06;;;;;;;14.48;12.98;;;17.00;74.10;;;;;;5037517;28;20028;-61
2021/05/01 05:11:32;;;;;;;14.68;12.98;;;16.90;74.50;;;;;;5047044;28;20029;-61
2021/05/01 05:13:59;;;;;;;14.43;11.90;;;17.00;74.40;;;;;;5060295;28;20094;-61
2021/05/01 05:16:25;;;;;;;14.07;12.57;;;17.00;74.30;;;;;;5043229;28;20048;-61
2021/05/01 05:18:51;;;;;;;14.30;12.90;;;17.00;74.30;;;;;;5042326;28;20056;-60
2021/05/01 05:21:16;;;;;;;14.43;12.75;;;17.00;74.40;;;;;;5050450;28;20099;-60
2021/05/01 05:23:42;;;;;;;14.07;12.57;;;17.00;74.10;;;;;;5056053;28;20407;-60
2021/05/01 05:26:08;;;;;;;15.93;12.27;;;17.00;74.40;;;;;;5044851;28;20028;-60
2021/05/01 05:28:33;;;;;;;15.32;13.25;;;17.10;74.10;;;;;;5053903;28;20127;-60
2021/05/01 05:30:59;;;;;;;17.73;13.18;;;17.10;74.00;;;;;;5063894;28;20033;-60
2021/05/01 05:33:25;;;;;;;16.02;13.23;;;17.00;74.40;;;;;;5062804;28;20033;-60
2021/05/01 05:35:50;;;;;;;14.82;13.35;;;17.00;75.20;;;;;;5052234;28;20041;-61
2021/05/01 05:38:16;;;;;;;14.52;13.13;;;17.10;74.50;;;;;;5039869;28;20094;-61
2021/05/01 05:40:42;;;;;;;13.85;12.45;;;17.10;74.20;;;;;;5028298;28;20064;-61
2021/05/01 05:43:11;;;;;;;13.48;11.88;;;17.00;74.60;;;;;;5055022;28;20071;-61
2021/05/01 05:45:38;;;;;;;14.07;12.57;;;17.10;74.20;;;;;;5065207;28;20047;-60
2021/05/01 05:48:04;;;;;;;13.55;12.20;;;17.10;74.00;;;;;;5060737;28;20123;-60
2021/05/01 05:50:30;;;;;;;12.85;11.48;;;17.10;74.30;;;;;;5064027;28;20121;-60
2021/05/01 05:52:56;;;;;;;13.48;12.02;;;17.30;73.90;;;;;;5048556;28;20059;-60
2021/05/01 05:55:21;;;;;;;13.55;12.10;;;17.30;73.50;;;;;;5046981;28;20097;-60
2021/05/01 05:57:50;;;;;;;13.30;10.93;;;17.30;73.50;;;;;;5057845;28;20040;-61
2021/05/01 06:00:17;;;;;;;17.60;13.57;;;17.40;73.20;;;;;;5064057;28;20513;-60
2021/05/01 06:02:43;;;;;;;14.60;12.20;;;17.40;73.50;;;;;;5033905;28;20097;-60
2021/05/01 06:05:20;;;;;;;13.05;11.75;;;17.40;73.20;;;;;;5051340;28;20040;-61
2021/05/01 06:07:52;;;;;;;17.67;13.32;;;17.50;73.20;;;;;;5045574;28;20052;-60
2021/05/01 06:10:18;;;;;;;18.73;12.98;;;17.50;73.10;;;;;;5044329;28;20060;-61
2021/05/01 06:12:45;;;;;;;14.13;12.57;;;17.50;73.00;;;;;;5047871;28;20503;-60
2021/05/01 06:15:14;;;;;;;12.68;11.38;;;17.60;73.00;;;;;;5045407;28;20033;-61
2021/05/01 06:17:40;;;;;;;13.10;11.35;;;17.50;72.90;;;;;;5058194;28;20079;-61
2021/05/01 06:20:08;;;;;;;13.75;11.32;;;17.40;73.10;;;;;;5040514;28;20484;-61
2021/05/01 06:22:34;;;;;;;15.20;11.63;;;17.50;73.10;;;;;;5058540;28;20071;-61
2021/05/01 06:25:02;;;;;;;13.20;11.90;;;17.40;73.30;;;;;;5060726;28;20040;-61
2021/05/01 06:27:27;;;;;;;14.48;12.20;;;17.50;72.80;;;;;;5055512;28;20147;-60
2021/05/01 06:29:53;;;;;;;14.65;12.70;;;17.60;72.60;;;;;;5036703;28;20037;-61
2021/05/01 06:32:20;;;;;;;12.73;11.25;;;17.60;72.50;;;;;;5052837;28;20052;-60
2021/05/01 06:34:49;;;;;;;13.68;11.50;;;17.60;72.50;;;;;;5051063;28;20394;-61
2021/05/01 06:37:16;;;;;;;14.27;11.73;;;17.60;72.20;;;;;;5064440;28;20123;-60
2021/05/01 06:39:46;;;;;;;12.75;11.45;;;17.80;72.00;;;;;;5061396;28;20035;-61
2021/05/01 06:42:16;;;;;;;13.38;12.07;;;17.70;72.40;;;;;;5068282;28;20047;-60
2021/05/01 06:45:07;;;;;;;15.35;12.73;;;17.80;72.60;;;;;;5048066;28;20033;-60
2021/05/01 06:47:45;;;;;;;16.08;12.05;;;17.80;72.20;;;;;;5070263;28;20036;-61
2021/05/01 06:50:12;;;;;;;14.25;11.45;;;17.80;72.60;;;;;;5021530;28;20029;-60
2021/05/01 06:52:38;;;;;;;14.73;12.10;;;18.00;72.20;;;;;;5057132;28;20173;-60
2021/05/01 06:55:06;;;;;;;13.98;11.93;;;18.00;72.00;;;;;;5065191;28;20494;-60
2021/05/01 06:57:32;;;;;;;14.57;12.95;;;17.80;72.30;;;;;;5069625;28;20093;-61
2021/05/01 06:59:59;;;;;;;14.98;12.77;;;17.90;72.00;;;;;;5056053;28;20071;-60
2021/05/01 07:02:30;;;;;;;14.43;12.90;;;17.90;71.80;;;;;;5051313;28;20048;-61
2021/05/01 07:04:59;;;;;;;16.55;13.50;;;17.70;72.20;;;;;;5044321;28;20045;-60
2021/05/01 07:07:27;;;;;;;17.33;14.20;;;17.60;72.80;;;;;;5058224;28;20118;-60
2021/05/01 07:09:53;;;;;;;17.17;14.15;;;17.70;72.30;;;;;;5057203;28;20486;-59
2021/05/01 07:12:20;;;;;;;17.02;15.18;;;17.70;72.70;;;;;;5054462;28;20059;-60
2021/05/01 07:14:47;;;;;;;19.35;16.17;;;17.50;72.80;;;;;;5069015;28;20036;-60
2021/05/01 07:17:14;;;;;;;18.95;15.40;;;17.60;73.30;;;;;;5050632;28;20060;-60
2021/05/01 07:19:41;;;;;;;21.90;16.80;;;17.50;73.60;;;;;;5056470;28;20037;-61
2021/05/01 07:22:08;;;;;;;20.10;16.00;;;17.50;73.60;;;;;;5043832;28;20056;-61
2021/05/01 07:24:34;;;;;;;18.35;15.93;;;17.70;73.30;;;;;;5052651;28;20120;-60
2021/05/01 07:27:00;;;;;;;16.95;15.20;;;17.80;73.30;;;;;;5053016;28;20457;-61
2021/05/01 07:29:32;;;;;;;20.13;15.60;;;17.80;72.80;;;;;;5049310;28;20095;-61
2021/05/01 07:31:58;;;;;;;22.02;16.50;;;17.80;73.00;;;;;;5046969;28;20056;-61
2021/05/01 07:34:26;;;;;;;23.13;16.33;;;17.70;73.10;;;;;;5057774;28;20500;-61
2021/05/01 07:36:54;;;;;;;18.15;16.23;;;17.70;73.10;;;;;;5060382;28;20083;-61
2021/05/01 07:39:20;;;;;;;23.02;16.70;;;17.80;73.20;;;;;;5060084;28;20098;-61
2021/05/01 07:41:55;;;;;;;18.33;15.02;;;17.90;72.70;;;;;;5046926;28;20064;-61
2021/05/01 07:44:24;;;;;;;22.08;16.15;;;18.00;72.60;;;;;;5047173;28;20051;-59
2021/05/01 07:46:49;;;;;;;19.00;15.07;;;18.00;72.60;;;;;;5043110;28;20386;-59
2021/05/01 07:49:15;;;;;;;17.73;15.93;;;18.00;72.60;;;;;;5056125;28;20117;-59
2021/05/01 07:51:43;;;;;;;16.38;14.82;;;17.90;72.80;;;;;;5048486;28;20103;-59
2021/05/01 07:54:09;;;;;;;16.38;14.52;;;18.00;72.60;;;;;;5051531;28;20041;-59
2021/05/01 07:56:35;;;;;;;18.27;16.38;;;18.00;72.50;;;;;;5036684;28;20253;-60
2021/05/01 07:59:01;;;;;;;17.88;15.75;;;17.90;72.60;;;;;;5054148;28;20219;-59
2021/05/01 08:01:28;;;;;;;19.52;16.45;;;17.90;73.00;;;;;;5055404;28;20097;-59
2021/05/01 08:03:54;;;;;;;16.77;15.07;;;18.00;72.90;;;;;;5050148;28;20055;-60
2021/05/01 08:06:21;;;;;;;16.02;14.35;;;18.00;72.50;;;;;;5064323;28;20062;-60
2021/05/01 08:08:47;;;;;;;19.50;15.73;;;17.80;72.90;;;;;;5044795;28;20036;-60
2021/05/01 08:11:13;;;;;;;17.83;14.40;;;17.80;72.90;;;;;;5051385;28;20036;-59
2021/05/01 08:13:38;;;;;;;17.15;14.80;;;17.80;72.90;;;;;;5053400;28;20036;-60
2021/05/01 08:16:04;;;;;;;16.98;15.07;;;18.10;72.70;;;;;;5053335;28;20033;-59
2021/05/01 08:18:30;;;;;;;19.17;15.23;;;18.10;72.50;;;;;;5055406;28;20047;-59
2021/05/01 08:20:56;;;;;;;17.20;15.60;;;18.20;72.20;;;;;;5063980;28;20029;-60
2021/05/01 08:23:21;;;;;;;17.65;15.60;;;18.20;72.40;;;;;;5049292;28;20040;-60
2021/05/01 08:25:47;;;;;;;16.73;14.70;;;18.10;72.40;;;;;;5056414;28;20080;-60
2021/05/01 08:28:13;;;;;;;18.08;14.65;;;18.20;72.50;;;;;;5057774;28;20407;-61
2021/05/01 08:30:38;;;;;;;18.27;16.20;;;18.10;72.50;;;;;;5062671;28;20470;-61
2021/05/01 08:33:04;;;;;;;17.20;15.18;;;18.10;72.70;;;;;;5050471;28;20360;-60
2021/05/01 08:35:30;;;;;;;16.67;14.90;;;18.00;73.00;;;;;;5055488;28;20060;-59
2021/05/01 08:37:55;;;;;;;15.85;14.25;;;18.10;73.40;;;;;;5050598;28;20135;-60
2021/05/01 08:40:21;;;;;;;16.77;15.13;;;18.10;73.40;;;;;;5043718;28;20049;-60
2021/05/01 08:42:48;;;;;;;17.13;15.45;;;18.20;74.70;;;;;;5055204;28;20052;-60
2021/05/01 08:45:17;;;;;;;19.60;15.88;;;18.10;75.50;;;;;;5051581;28;20372;-60
2021/05/01 08:47:45;;;;;;;17.63;15.18;;;18.10;77.00;;;;;;5058159;28;20079;-60
2021/05/01 08:50:26;;;;;;;19.80;16.50;;;17.90;77.10;;;;;;5036826;28;20029;-60
2021/05/01 08:52:55;;;;;;;16.35;14.63;;;18.00;78.70;;;;;;5049352;28;20033;-60
2021/05/01 08:55:26;;;;;;;17.90;16.00;;;18.00;77.80;;;;;;5045543;28;20040;-60
2021/05/01 08:57:52;;;;;;;17.30;15.43;;;18.00;77.50;;;;;;5066205;28;20510;-60
2021/05/01 09:00:18;;;;;;;18.23;14.10;;;18.00;77.60;;;;;;5053122;28;20572;-61
2021/05/01 09:02:44;;;;;;;16.98;15.32;;;17.90;78.20;;;;;;5043443;28;20048;-60
2021/05/01 09:05:11;;;;;;;16.67;14.90;;;17.90;78.20;;;;;;5043134;28;20390;-60
2021/05/01 09:07:39;;;;;;;19.52;15.73;;;17.90;78.60;;;;;;5051812;28;20061;-61
2021/05/01 09:10:06;;;;;;;17.48;15.65;;;18.10;78.60;;;;;;5044867;28;20368;-60
2021/05/01 09:12:46;;;;;;;18.80;16.58;;;18.00;78.70;;;;;;5042718;28;20061;-60
2021/05/01 09:15:18;;;;;;;20.85;17.10;;;18.10;79.20;;;;;;5020090;28;20480;-60
2021/05/01 09:17:46;;;;;;;18.63;16.65;;;18.30;78.00;;;;;;5049822;28;20057;-60
2021/05/01 09:20:15;;;;;;;19.10;17.10;;;18.40;78.80;;;;;;5048534;28;20075;-61
2021/05/01 09:23:10;;;;;;;21.10;16.85;;;18.50;79.10;;;;;;5057392;28;20395;-61
2021/05/01 09:25:59;;;;;;;20.13;15.88;;;18.60;81.20;;;;;;5011876;28;20483;-62
2021/05/01 09:28:27;;;;;;;15.85;14.18;;;18.50;80.70;;;;;;5051660;28;20442;-51
2021/05/01 09:31:10;;;;;;;16.00;14.35;;;18.40;78.40;;;;;;5042113;28;20086;-51
2021/05/01 09:33:38;;;;;;;17.30;14.68;;;18.40;80.20;;;;;;5060292;28;20116;-53
2021/05/01 09:36:15;;;;;;;16.85;15.07;;;18.30;80.40;;;;;;5058322;28;20029;-55
2021/05/01 09:38:45;;;;;;;22.50;15.73;;;18.10;80.50;;;;;;5026799;28;20045;-53
2021/05/01 09:41:26;;;;;;;18.05;15.93;;;18.00;81.70;;;;;;5041297;28;20029;-50
2021/05/01 09:44:06;;;;;;;16.77;15.10;;;18.10;81.00;;;;;;5046011;28;20566;-50
2021/05/01 09:46:44;;;;;;;16.67;14.90;;;18.20;82.00;;;;;;5036047;28;20399;-50
2021/05/01 09:49:14;;;;;;;17.00;15.20;;;18.40;78.80;;;;;;5045559;28;20066;-51
2021/05/01 09:51:57;;;;;;;20.88;16.77;;;18.40;79.50;;;;;;5049059;28;20486;-55
2021/05/01 09:54:34;;;;;;;15.98;14.38;;;18.60;80.00;;;;;;5048089;28;20044;-55
2021/05/01 09:57:02;;;;;;;18.80;15.90;;;18.70;77.00;;;;;;5032261;28;20032;-56
2021/05/01 09:59:41;;;;;;;16.88;15.10;;;18.70;77.70;;;;;;5046954;28;20132;-54
2021/05/01 10:02:12;;;;;;;19.88;16.27;;;18.80;77.50;;;;;;5037687;28;20403;-54
2021/05/01 10:04:38;;;;;;;18.70;16.67;;;18.90;78.00;;;;;;5045502;28;20064;-54
2021/05/01 10:07:09;;;;;;;19.27;17.02;;;18.90;78.10;;;;;;5041984;28;22352;-50
2021/05/01 10:09:36;;;;;;;18.15;16.25;;;18.90;78.20;;;;;;5025653;28;20390;-49
2021/05/01 10:12:03;;;;;;;18.75;15.68;;;18.90;78.60;;;;;;5044851;28;20032;-53
2021/05/01 10:14:46;;;;;;;19.58;17.50;;;19.00;78.40;;;;;;5047100;28;20045;-51
2021/05/01 10:17:32;;;;;;;20.25;18.20;;;18.90;79.50;;;;;;5048297;28;20053;-49
2021/05/01 10:20:05;;;;;;;18.77;16.80;;;18.90;81.00;;;;;;5035784;28;20053;-61
2021/05/01 10:22:34;;;;;;;19.75;17.20;;;18.70;80.90;;;;;;5044447;28;20040;-60
2021/05/01 10:25:06;;;;;;;20.17;18.38;;;18.90;80.50;;;;;;5049183;28;20119;-60
2021/05/01 10:28:05;;;;;;;19.92;17.63;;;19.10;79.80;;;;;;5059429;28;20047;-59
2021/05/01 10:31:05;;;;;;;19.05;17.05;;;19.10;80.30;;;;;;5009155;28;20032;-59
2021/05/01 10:33:29;;;;;;;20.52;17.40;;;19.20;79.40;;;;;;5033074;28;20060;-59
2021/05/01 10:36:01;;;;;;;20.92;18.35;;;19.10;79.90;;;;;;5067705;28;20029;-60
2021/05/01 10:38:27;;;;;;;18.15;16.35;;;19.20;80.20;;;;;;5058163;28;20056;-60
2021/05/01 10:40:55;;;;;;;19.30;17.17;;;19.10;79.80;;;;;;5049482;28;20033;-60
2021/05/01 10:43:26;;;;;;;21.33;19.17;;;19.20;80.80;;;;;;5059365;28;20037;-60
2021/05/01 10:45:54;;;;;;;20.27;18.30;;;19.10;81.40;;;;;;5043311;28;20119;-60
2021/05/01 10:48:21;;;;;;;18.95;17.10;;;19.10;82.30;;;;;;5030867;28;20084;-60
2021/05/01 10:50:59;;;;;;;20.13;18.00;;;19.10;81.10;;;;;;5052061;28;20135;-60
2021/05/01 10:53:25;;;;;;;20.65;18.10;;;18.90;82.20;;;;;;5064573;28;20029;-60
2021/05/01 10:55:54;;;;;;;18.58;16.63;;;18.90;82.20;;;;;;5059206;28;20029;-60
2021/05/01 10:58:35;;;;;;;18.35;16.55;;;18.70;83.20;;;;;;5065765;28;20033;-59
2021/05/01 11:01:02;;;;;;;19.15;17.23;;;18.60;83.00;;;;;;5016093;28;20046;-60
2021/05/01 11:03:29;;;;;;;20.10;18.05;;;18.70;82.90;;;;;;5013917;28;20050;-60
2021/05/01 11:05:59;;;;;;;22.67;20.38;;;18.70;83.50;;;;;;5010380;28;20046;-60
2021/05/01 11:08:30;;;;;;;24.02;18.40;;;18.80;84.30;;;;;;5038375;28;20072;-60
2021/05/01 11:10:57;;;;;;;20.55;18.33;;;18.80;83.80;;;;;;5025970;28;20141;-60
2021/05/01 11:13:27;;;;;;;20.40;18.27;;;18.80;83.50;;;;;;5028114;28;20030;-61
2021/05/01 11:15:57;;;;;;;18.48;16.33;;;18.80;83.60;;;;;;5019263;28;20132;-60
2021/05/01 11:18:26;;;;;;;19.92;17.83;;;18.60;84.10;;;;;;5025405;28;20046;-60
2021/05/01 11:20:57;;;;;;;21.70;18.58;;;18.60;84.30;;;;;;5009856;28;20072;-60
2021/05/01 11:23:26;;;;;;;20.45;17.85;;;18.60;85.20;;;;;;5019327;28;20041;-59
2021/05/01 11:25:54;;;;;;;20.33;17.85;;;18.60;85.30;;;;;;5002782;28;20488;-59
2021/05/01 11:28:23;;;;;;;24.55;18.77;;;18.50;85.90;;;;;;5002047;28;20044;-58
2021/05/01 11:30:51;;;;;;;23.20;18.77;;;18.40;86.80;;;;;;5021096;28;20107;-59
2021/05/01 11:33:20;;;;;;;21.30;18.05;;;18.40;87.70;;;;;;5019274;28;20617;-60
2021/05/01 11:35:47;;;;;;;23.08;20.15;;;18.60;88.00;;;;;;5008767;28;20080;-60
2021/05/01 11:38:22;;;;;;;18.92;17.10;;;18.50;89.30;;;;;;5021156;28;20050;-60
2021/05/01 11:40:51;;;;;;;18.45;16.52;;;18.50;88.80;;;;;;5015570;28;20042;-60
2021/05/01 11:43:18;;;;;;;19.55;17.20;;;18.60;88.50;;;;;;5008147;28;20054;-60
2021/05/01 11:45:50;;;;;;;17.15;15.55;;;18.70;88.90;;;;;;5012673;28;20049;-60
2021/05/01 11:48:34;;;;;;;17.00;15.30;;;18.70;87.30;;;;;;5023638;28;20041;-61
2021/05/01 11:51:04;;;;;;;17.90;14.45;;;18.70;87.90;;;;;;5009052;28;20102;-60
2021/05/01 11:53:48;;;;;;;16.25;14.15;;;18.70;86.90;;;;;;5026359;28;20376;-60
2021/05/01 11:56:56;;;;;;;15.60;13.93;;;18.70;88.20;;;;;;4998523;28;20037;-60
2021/05/01 11:59:22;;;;;;;15.98;14.35;;;18.70;86.40;;;;;;4951634;28;20501;-60
2021/05/01 12:02:00;;;;;;;16.60;14.15;;;18.70;86.50;;;;;;4966106;28;20121;-61
2021/05/01 12:04:50;;;;;;;15.60;13.95;;;18.50;86.90;;;;;;4995583;28;20052;-60
2021/05/01 12:07:32;;;;;;;16.95;14.35;;;18.50;87.70;;;;;;4998887;28;20437;-60
2021/05/01 12:10:06;;;;;;;16.17;14.43;;;18.50;87.50;;;;;;5010231;28;20049;-59
2021/05/01 12:12:34;;;;;;;16.40;14.68;;;18.50;87.40;;;;;;5009216;28;20113;-59
2021/05/01 12:15:03;;;;;;;17.83;15.95;;;18.50;88.30;;;;;;5019178;28;20041;-60
2021/05/01 12:17:31;;;;;;;18.65;16.75;;;18.60;88.30;;;;;;5020032;28;20075;-60
2021/05/01 12:20:11;;;;;;;19.15;16.75;;;18.70;88.80;;;;;;5037700;28;20128;-60
2021/05/01 12:22:37;;;;;;;16.58;14.98;;;18.70;90.10;;;;;;5016702;28;20045;-60
2021/05/01 12:25:33;;;;;;;16.55;14.38;;;18.40;88.80;;;;;;5016920;28;20074;-60
2021/05/01 12:27:59;;;;;;;17.48;15.68;;;18.50;90.00;;;;;;5000106;28;20514;-60
2021/05/01 12:30:38;;;;;;;17.95;15.50;;;18.50;90.00;;;;;;5016706;28;20176;-60
2021/05/01 12:33:31;;;;;;;17.85;15.93;;;18.50;90.00;;;;;;5003832;28;20037;-60
2021/05/01 12:36:02;;;;;;;22.08;17.85;;;18.50;87.10;;;;;;4990093;28;20026;-60
2021/05/01 12:38:30;;;;;;;17.95;15.85;;;18.50;89.30;;;;;;5011959;28;20124;-60
2021/05/01 12:41:08;;;;;;;18.73;16.67;;;18.50;88.80;;;;;;5017403;28;20037;-60
2021/05/01 12:43:33;;;;;;;18.30;16.42;;;18.60;89.50;;;;;;5017859;28;20395;-60
2021/05/01 12:46:12;;;;;;;21.27;18.27;;;18.60;89.60;;;;;;5018987;28;20050;-59
2021/05/01 12:48:51;;;;;;;24.70;19.67;;;18.50;90.00;;;;;;5010112;28;20058;-59
2021/05/01 12:51:21;;;;;;;23.13;19.23;;;18.60;91.20;;;;;;4998009;28;20044;-60